createdAt,value
2023-03-03T00:01:49.514Z,59.83
2023-03-03T00:04:17.172Z,57.33
2023-03-03T00:06:45.611Z,61.38
2023-03-03T00:09:13.298Z,58.08
2023-03-03T00:11:43.932Z,56.53
2023-03-03T00:14:26.573Z,59.25
2023-03-03T00:16:55.024Z,54.40
2023-03-03T00:19:28.884Z,57.55
2023-03-03T00:21:58.188Z,57.08
2023-03-03T00:24:29.076Z,56.38
2023-03-03T00:26:57.743Z,60.08
2023-03-03T00:29:29.043Z,58.10
2023-03-03T00:32:02.134Z,56.40
2023-03-03T00:34:31.242Z,54.47
2023-03-03T00:36:59.171Z,54.25
2023-03-03T00:39:39.967Z,56.88
2023-03-03T00:42:14.771Z,53.97
2023-03-03T00:44:42.447Z,56.55
2023-03-03T00:47:31.437Z,60.40
2023-03-03T00:50:18.817Z,60.58
2023-03-03T00:52:53.279Z,57.08
2023-03-03T00:55:21.402Z,56.83
2023-03-03T00:57:49.092Z,56.10
2023-03-03T01:00:19.946Z,58.28
2023-03-03T01:02:48.551Z,55.28
2023-03-03T01:05:18.097Z,57.13
2023-03-03T01:07:46.009Z,57.88
2023-03-03T01:10:13.747Z,60.08
2023-03-03T01:12:41.525Z,61.78
2023-03-03T01:15:10.516Z,62.47
2023-03-03T01:17:39.955Z,60.80
2023-03-03T01:20:08.712Z,57.38
2023-03-03T01:22:36.383Z,61.13
2023-03-03T01:25:04.168Z,57.40
2023-03-03T01:27:32.654Z,58.78
2023-03-03T01:30:01.512Z,58.13
2023-03-03T01:32:30.138Z,56.60
2023-03-03T01:34:58.029Z,60.72
2023-03-03T01:37:25.759Z,60.20
2023-03-03T01:39:54.828Z,58.22
2023-03-03T01:42:23.357Z,58.70
2023-03-03T01:45:10.889Z,60.00
2023-03-03T01:47:38.697Z,60.15
2023-03-03T01:50:12.721Z,62.53
2023-03-03T01:52:43.114Z,56.78
2023-03-03T01:55:16.409Z,66.37
2023-03-03T01:57:46.789Z,57.30
2023-03-03T02:00:14.585Z,61.37
2023-03-03T02:02:43.056Z,62.38
2023-03-03T02:05:11.228Z,61.20
2023-03-03T02:07:39.142Z,62.42
2023-03-03T02:10:09.932Z,60.38
2023-03-03T02:12:50.061Z,60.25
2023-03-03T02:15:19.295Z,59.42
2023-03-03T02:17:48.020Z,57.30
2023-03-03T02:20:34.644Z,57.45
2023-03-03T02:23:17.621Z,59.17
2023-03-03T02:25:58.741Z,62.55
2023-03-03T02:28:30.487Z,59.58
2023-03-03T02:31:01.438Z,61.30
2023-03-03T02:33:30.399Z,63.78
2023-03-03T02:35:57.993Z,58.67
2023-03-03T02:38:31.541Z,57.80
2023-03-03T02:41:12.198Z,62.90
2023-03-03T02:43:44.550Z,58.50
2023-03-03T02:46:12.822Z,61.50
2023-03-03T02:48:40.442Z,61.22
2023-03-03T02:51:08.216Z,61.42
2023-03-03T02:53:36.369Z,63.10
2023-03-03T02:56:04.445Z,64.28
2023-03-03T02:58:32.199Z,61.50
2023-03-03T03:01:01.069Z,65.35
2023-03-03T03:03:29.133Z,63.63
2023-03-03T03:05:57.301Z,65.82
2023-03-03T03:08:26.537Z,63.42
2023-03-03T03:10:54.184Z,62.80
2023-03-03T03:13:22.207Z,62.00
2023-03-03T03:15:49.909Z,62.83
2023-03-03T03:18:19.192Z,64.30
2023-03-03T03:20:48.509Z,61.60
2023-03-03T03:23:16.605Z,61.78
2023-03-03T03:25:47.514Z,58.95
2023-03-03T03:28:22.836Z,61.20
2023-03-03T03:30:52.585Z,62.40
2023-03-03T03:33:22.205Z,58.25
2023-03-03T03:35:51.425Z,65.35
2023-03-03T03:38:19.830Z,61.15
2023-03-03T03:40:48.941Z,57.40
2023-03-03T03:43:16.681Z,60.45
2023-03-03T03:45:45.008Z,58.90
2023-03-03T03:48:14.376Z,58.92
2023-03-03T03:50:42.109Z,58.03
2023-03-03T03:53:10.699Z,64.22
2023-03-03T03:55:39.197Z,63.22
2023-03-03T03:58:06.966Z,62.13
2023-03-03T04:00:34.735Z,60.92
2023-03-03T04:03:03.059Z,63.13
2023-03-03T04:05:31.239Z,58.63
2023-03-03T04:07:59.725Z,57.38
2023-03-03T04:10:28.572Z,61.95
2023-03-03T04:12:56.456Z,60.42
2023-03-03T04:15:24.999Z,65.03
2023-03-03T04:17:53.131Z,65.07
2023-03-03T04:20:21.567Z,66.82
2023-03-03T04:22:49.653Z,60.70
2023-03-03T04:25:18.049Z,63.72
2023-03-03T04:27:46.704Z,66.22
2023-03-03T04:30:17.113Z,60.72
2023-03-03T04:32:48.634Z,60.55
2023-03-03T04:35:20.148Z,63.00
2023-03-03T04:37:48.210Z,62.63
2023-03-03T04:40:17.318Z,61.35
2023-03-03T04:42:47.114Z,61.45
2023-03-03T04:45:14.754Z,61.38
2023-03-03T04:47:43.122Z,60.70
2023-03-03T04:50:11.754Z,66.13
2023-03-03T04:52:40.013Z,65.65
2023-03-03T04:55:10.542Z,60.70
2023-03-03T04:57:39.681Z,62.25
2023-03-03T05:00:07.840Z,59.17
2023-03-03T05:02:35.527Z,63.72
2023-03-03T05:05:03.423Z,64.82
2023-03-03T05:07:31.027Z,64.78
2023-03-03T05:09:58.592Z,64.47
2023-03-03T05:12:26.938Z,60.42
2023-03-03T05:14:54.668Z,61.90
2023-03-03T05:17:22.289Z,60.90
2023-03-03T05:19:50.171Z,64.28
2023-03-03T05:22:18.311Z,63.85
2023-03-03T05:24:49.327Z,62.17
2023-03-03T05:27:17.246Z,62.97
2023-03-03T05:29:44.968Z,64.25
2023-03-03T05:32:13.004Z,64.05
2023-03-03T05:34:40.631Z,64.18
2023-03-03T05:37:08.288Z,65.30
2023-03-03T05:39:36.168Z,63.50
2023-03-03T05:42:03.945Z,63.47
2023-03-03T05:44:31.518Z,65.28
2023-03-03T05:46:59.357Z,65.38
2023-03-03T05:49:27.281Z,68.25
2023-03-03T05:51:54.875Z,66.00
2023-03-03T05:54:22.530Z,71.15
2023-03-03T05:56:50.153Z,69.07
2023-03-03T05:59:17.742Z,66.95
2023-03-03T06:01:45.656Z,63.80
2023-03-03T06:04:13.376Z,66.88
2023-03-03T06:06:41.098Z,65.90
2023-03-03T06:09:11.609Z,66.00
2023-03-03T06:11:39.773Z,66.88
2023-03-03T06:14:07.406Z,67.88
2023-03-03T06:16:35.085Z,63.75
2023-03-03T06:19:02.902Z,58.97
2023-03-03T06:21:30.511Z,62.00
2023-03-03T06:23:58.371Z,64.18
2023-03-03T06:26:26.267Z,60.20
2023-03-03T06:28:55.381Z,65.55
2023-03-03T06:31:23.032Z,64.28
2023-03-03T06:33:51.558Z,64.95
2023-03-03T06:36:19.445Z,65.05
2023-03-03T06:38:47.379Z,66.78
2023-03-03T06:41:15.085Z,64.32
2023-03-03T06:43:42.849Z,62.72
2023-03-03T06:46:10.752Z,66.65
2023-03-03T06:48:38.600Z,63.47
2023-03-03T06:51:23.053Z,62.50
2023-03-03T06:53:55.197Z,65.28
2023-03-03T06:56:24.985Z,68.05
2023-03-03T06:58:57.529Z,64.78
2023-03-03T07:01:26.037Z,64.05
2023-03-03T07:03:53.710Z,67.13
2023-03-03T07:06:23.992Z,69.47
2023-03-03T07:08:52.809Z,67.88
2023-03-03T07:11:22.184Z,69.10
2023-03-03T07:13:54.045Z,70.32
2023-03-03T07:16:26.403Z,64.25
2023-03-03T07:19:03.270Z,71.93
2023-03-03T07:21:37.342Z,65.63
2023-03-03T07:24:23.203Z,67.13
2023-03-03T07:26:50.895Z,64.90
2023-03-03T07:29:25.418Z,65.65
2023-03-03T07:31:54.114Z,69.25
2023-03-03T07:34:28.014Z,68.32
2023-03-03T07:36:59.697Z,71.20
2023-03-03T07:39:27.404Z,73.38
2023-03-03T07:41:59.293Z,70.38
2023-03-03T07:44:31.892Z,73.57
2023-03-03T07:47:00.846Z,72.32
2023-03-03T07:49:47.408Z,66.07
2023-03-03T07:52:24.992Z,65.38
2023-03-03T07:54:53.258Z,66.47
2023-03-03T07:57:27.139Z,68.88
2023-03-03T07:59:54.992Z,67.72
2023-03-03T08:02:34.937Z,62.88
2023-03-03T08:05:05.256Z,63.00
2023-03-03T08:07:35.338Z,66.68
2023-03-03T08:10:03.186Z,73.45
2023-03-03T08:12:45.127Z,72.72
2023-03-03T08:15:17.715Z,70.35
2023-03-03T08:17:45.902Z,67.00
2023-03-03T08:20:32.570Z,69.78
2023-03-03T08:23:00.170Z,64.85
2023-03-03T08:25:27.775Z,70.03
2023-03-03T08:27:55.492Z,64.38
2023-03-03T08:30:23.074Z,62.00
2023-03-03T08:32:50.937Z,63.22
2023-03-03T08:35:18.707Z,64.97
2023-03-03T08:37:46.446Z,67.38
2023-03-03T08:40:14.544Z,64.18
2023-03-03T08:42:42.171Z,70.50
2023-03-03T08:45:10.221Z,61.75
2023-03-03T08:47:38.400Z,66.85
2023-03-03T08:50:06.705Z,63.40
2023-03-03T08:52:34.424Z,65.97
2023-03-03T08:55:02.213Z,64.78
2023-03-03T08:57:29.928Z,62.05
2023-03-03T08:59:57.660Z,60.88
2023-03-03T09:02:25.355Z,65.03
2023-03-03T09:04:53.124Z,60.67
2023-03-03T09:07:20.965Z,65.50
2023-03-03T09:09:48.832Z,66.93
2023-03-03T09:12:18.588Z,61.88
2023-03-03T09:14:47.512Z,69.95
2023-03-03T09:17:21.436Z,63.65
2023-03-03T09:19:49.768Z,63.58
2023-03-03T09:22:22.274Z,62.50
2023-03-03T09:24:50.573Z,57.53
2023-03-03T09:27:31.490Z,65.55
2023-03-03T09:30:03.194Z,63.85
2023-03-03T09:32:40.196Z,61.20
2023-03-03T09:35:26.886Z,62.13
2023-03-03T09:37:54.547Z,62.92
2023-03-03T09:40:37.326Z,59.50
2023-03-03T09:43:12.400Z,58.58
2023-03-03T09:45:53.464Z,58.65
2023-03-03T09:48:24.310Z,60.60
2023-03-03T09:51:05.794Z,59.22
2023-03-03T09:53:42.590Z,56.95
2023-03-03T09:56:16.482Z,58.50
2023-03-03T09:59:03.086Z,55.45
2023-03-03T10:01:36.692Z,53.05
2023-03-03T10:04:23.316Z,51.70
2023-03-03T10:06:54.110Z,52.80
2023-03-03T10:09:33.656Z,47.95
2023-03-03T10:12:20.616Z,49.03
2023-03-03T10:14:48.328Z,48.28
2023-03-03T10:17:39.989Z,44.55
2023-03-03T10:20:10.859Z,48.72
2023-03-03T10:22:38.679Z,45.35
2023-03-03T10:25:22.305Z,47.63
2023-03-03T10:27:56.055Z,44.78
2023-03-03T10:30:42.688Z,46.50
2023-03-03T10:33:27.071Z,45.55
2023-03-03T10:36:13.243Z,46.30
2023-03-03T10:39:18.299Z,49.33
2023-03-03T10:42:21.049Z,46.35
2023-03-03T10:44:53.907Z,44.17
2023-03-03T10:47:24.620Z,48.60
2023-03-03T10:50:04.613Z,44.38
2023-03-03T10:52:53.528Z,44.88
2023-03-03T10:55:27.220Z,44.97
2023-03-03T10:58:09.660Z,46.72
2023-03-03T11:00:37.409Z,50.60
2023-03-03T11:03:20.630Z,46.38
2023-03-03T11:05:48.472Z,49.53
2023-03-03T11:08:23.739Z,48.05
2023-03-03T11:10:51.458Z,50.15
2023-03-03T11:13:27.386Z,50.55
2023-03-03T11:16:01.862Z,51.08
2023-03-03T11:18:32.286Z,45.80
2023-03-03T11:21:03.055Z,48.70
2023-03-03T11:23:30.786Z,46.78
2023-03-03T11:26:34.687Z,46.22
2023-03-03T11:29:21.343Z,47.40
2023-03-03T11:31:49.000Z,50.42
2023-03-03T11:34:38.406Z,48.60
2023-03-03T11:37:09.365Z,47.05
2023-03-03T11:42:17.148Z,44.97
2023-03-03T11:44:46.732Z,48.43
2023-03-03T11:47:19.655Z,47.17
2023-03-03T11:49:47.353Z,46.28
2023-03-03T11:52:18.182Z,48.13
2023-03-03T11:54:48.939Z,45.22
2023-03-03T11:57:16.510Z,43.92
2023-03-03T11:59:44.086Z,42.72
2023-03-03T12:02:22.026Z,48.15
2023-03-03T12:04:55.158Z,43.85
2023-03-03T12:07:22.832Z,51.75
2023-03-03T12:09:50.463Z,45.05
2023-03-03T12:12:18.178Z,49.17
2023-03-03T12:14:52.435Z,47.53
2023-03-03T12:17:30.013Z,48.50
2023-03-03T12:20:00.836Z,46.50
2023-03-03T12:22:29.768Z,46.33
2023-03-03T12:25:16.233Z,47.03
2023-03-03T12:28:13.324Z,46.45
2023-03-03T12:30:50.446Z,46.88
2023-03-03T12:33:18.135Z,45.38
2023-03-03T12:35:53.390Z,41.28
2023-03-03T12:38:27.217Z,42.88
2023-03-03T12:41:01.793Z,47.33
2023-03-03T12:43:41.489Z,42.13
2023-03-03T12:46:29.403Z,44.75
2023-03-03T12:48:57.286Z,45.38
2023-03-03T12:51:37.302Z,43.08
2023-03-03T12:54:08.039Z,45.13
2023-03-03T12:56:39.733Z,43.28
2023-03-03T12:59:09.286Z,46.95
2023-03-03T13:01:37.205Z,46.30
2023-03-03T13:04:23.739Z,47.40
2023-03-03T13:06:59.606Z,45.83
2023-03-03T13:09:36.399Z,43.55
2023-03-03T13:12:16.023Z,41.38
2023-03-03T13:14:54.945Z,48.55
2023-03-03T13:17:32.279Z,44.83
2023-03-03T13:20:01.599Z,44.22
2023-03-03T13:22:51.858Z,40.85
2023-03-03T13:25:40.825Z,42.63
2023-03-03T13:28:16.534Z,44.85
2023-03-03T13:30:48.332Z,39.53
2023-03-03T13:33:26.464Z,40.55
2023-03-03T13:35:55.410Z,44.88
2023-03-03T13:38:24.799Z,46.53
2023-03-03T13:40:58.346Z,43.13
2023-03-03T13:43:38.900Z,40.75
2023-03-03T13:46:17.393Z,40.38
2023-03-03T13:49:11.553Z,43.17
2023-03-03T13:51:39.271Z,43.65
2023-03-03T13:54:14.755Z,43.97
2023-03-03T13:57:05.758Z,41.33
2023-03-03T14:02:19.956Z,43.10
2023-03-03T14:04:55.505Z,41.00
2023-03-03T14:07:35.267Z,40.05
2023-03-03T14:10:10.123Z,45.42
2023-03-03T14:12:37.866Z,42.63
2023-03-03T14:15:24.778Z,43.88
2023-03-03T14:18:15.719Z,50.75
2023-03-03T14:21:06.471Z,44.40
2023-03-03T14:23:48.469Z,41.30
2023-03-03T14:26:16.569Z,41.15
2023-03-03T14:28:45.905Z,45.10
2023-03-03T14:31:18.533Z,39.40
2023-03-03T14:33:55.866Z,39.33
2023-03-03T14:36:30.342Z,41.55
2023-03-03T14:38:58.277Z,42.70
2023-03-03T14:41:43.392Z,38.67
2023-03-03T14:44:30.012Z,49.58
2023-03-03T14:47:06.879Z,44.28
2023-03-03T14:49:36.945Z,42.97
2023-03-03T14:52:10.542Z,45.33
2023-03-03T14:54:39.497Z,44.13
2023-03-03T14:57:16.909Z,46.17
2023-03-03T14:59:58.463Z,46.53
2023-03-03T15:02:26.049Z,48.60
2023-03-03T15:05:09.808Z,45.83
2023-03-03T15:07:38.727Z,46.97
2023-03-03T15:10:07.891Z,49.05
2023-03-03T15:12:37.170Z,47.42
2023-03-03T15:15:05.508Z,51.33
2023-03-03T15:17:39.448Z,55.33
2023-03-03T15:20:20.159Z,46.58
2023-03-03T15:22:48.228Z,45.47
2023-03-03T15:25:21.044Z,47.05
2023-03-03T15:28:09.115Z,47.60
2023-03-03T15:30:55.936Z,49.28
2023-03-03T15:33:47.105Z,45.38
2023-03-03T15:36:37.641Z,49.45
2023-03-03T15:39:09.015Z,49.08
2023-03-03T15:41:46.090Z,48.60
2023-03-03T15:44:32.796Z,46.90
2023-03-03T15:47:03.628Z,46.38
2023-03-03T15:49:49.702Z,50.45
2023-03-03T15:52:26.446Z,52.70
2023-03-03T15:54:55.082Z,48.97
2023-03-03T16:00:34.066Z,54.67
2023-03-03T16:06:21.463Z,51.65
2023-03-03T16:08:55.371Z,51.88
2023-03-03T16:14:14.658Z,49.78
2023-03-03T16:25:50.158Z,52.80
2023-03-03T16:40:25.998Z,55.85
2023-03-03T16:42:58.396Z,56.60
2023-03-03T16:45:40.162Z,54.35
2023-03-03T16:48:14.812Z,50.25
2023-03-03T16:50:51.641Z,49.00
2023-03-03T16:53:42.550Z,51.15
2023-03-03T16:56:28.582Z,53.80
2023-03-03T16:59:15.376Z,53.08
2023-03-03T17:02:04.048Z,52.30
2023-03-03T17:04:52.629Z,54.30
2023-03-03T17:07:45.875Z,53.03
2023-03-03T17:10:20.860Z,51.38
2023-03-03T17:12:48.928Z,50.22
2023-03-03T17:15:35.843Z,50.38
2023-03-03T17:18:22.775Z,51.80
2023-03-03T17:20:58.908Z,52.00
2023-03-03T17:23:29.798Z,52.85
2023-03-03T17:26:13.529Z,53.95
2023-03-03T17:28:48.005Z,54.42
2023-03-03T17:31:34.155Z,52.58
2023-03-03T17:34:08.117Z,55.90
2023-03-03T17:36:48.035Z,52.92
2023-03-03T17:39:34.778Z,51.47
2023-03-03T17:42:16.707Z,47.40
2023-03-03T17:45:02.154Z,54.47
2023-03-03T17:47:36.257Z,51.67
2023-03-03T17:50:16.329Z,52.92
2023-03-03T17:52:46.810Z,54.47
2023-03-03T17:55:44.532Z,56.08
2023-03-03T17:58:23.223Z,50.00
2023-03-03T18:01:02.034Z,54.75
2023-03-03T18:03:36.278Z,55.92
2023-03-03T18:06:22.826Z,54.03
2023-03-03T18:09:12.925Z,53.92
2023-03-03T18:11:44.843Z,54.95
2023-03-03T18:14:31.592Z,51.13
2023-03-03T18:17:20.238Z,52.03
2023-03-03T18:20:03.438Z,64.03
2023-03-03T18:22:42.009Z,57.78
2023-03-03T18:25:15.292Z,56.90
2023-03-03T18:27:44.571Z,59.47
2023-03-03T18:30:18.612Z,61.10
2023-03-03T18:33:03.347Z,56.75
2023-03-03T18:35:34.322Z,53.65
2023-03-03T18:38:17.414Z,59.28
2023-03-03T18:40:54.425Z,50.85
2023-03-03T18:43:42.928Z,51.05
2023-03-03T18:46:37.578Z,56.83
2023-03-03T18:49:10.275Z,57.70
2023-03-03T18:51:41.195Z,53.63
2023-03-03T18:54:18.191Z,51.30
2023-03-03T18:56:52.313Z,53.50
2023-03-03T18:59:34.272Z,52.33
2023-03-03T19:02:19.883Z,51.30
2023-03-03T19:04:50.968Z,52.28
2023-03-03T19:07:47.947Z,53.85
2023-03-03T19:10:22.186Z,51.42
2023-03-03T19:12:57.798Z,56.28
2023-03-03T19:15:32.523Z,53.13
2023-03-03T19:18:03.442Z,54.63
2023-03-03T19:20:48.722Z,55.78
2023-03-03T19:23:18.282Z,58.63
2023-03-03T19:25:47.916Z,57.05
2023-03-03T19:28:17.334Z,54.22
2023-03-03T19:30:58.920Z,53.53
2023-03-03T19:33:39.832Z,53.35
2023-03-03T19:36:13.377Z,59.38
2023-03-03T19:38:51.681Z,53.53
2023-03-03T19:41:38.530Z,55.53
2023-03-03T19:44:13.105Z,55.33
2023-03-03T19:46:40.909Z,57.72
2023-03-03T19:49:16.897Z,55.72
2023-03-03T19:51:57.294Z,52.70
2023-03-03T19:54:25.896Z,53.90
2023-03-03T19:56:57.310Z,58.45
2023-03-03T19:59:31.275Z,58.55
2023-03-03T20:02:17.956Z,54.85
2023-03-03T20:04:55.565Z,54.80
2023-03-03T20:07:33.887Z,63.45
2023-03-03T20:10:29.667Z,60.88
2023-03-03T20:13:10.352Z,54.85
2023-03-03T20:15:37.991Z,56.83
2023-03-03T20:18:15.277Z,54.83
2023-03-03T20:20:53.319Z,53.85
2023-03-03T20:23:29.669Z,55.08
2023-03-03T20:26:16.762Z,51.78
2023-03-03T20:29:04.036Z,55.78
2023-03-03T20:31:56.740Z,59.63
2023-03-03T20:34:33.814Z,56.42
2023-03-03T20:37:04.466Z,60.97
2023-03-03T20:39:48.801Z,59.20
2023-03-03T20:42:33.673Z,60.88
2023-03-03T20:45:31.852Z,60.75
2023-03-03T20:48:18.439Z,67.25
2023-03-03T20:50:55.536Z,62.20
2023-03-03T20:53:36.609Z,56.00
2023-03-03T20:56:10.411Z,62.35
2023-03-03T20:58:43.630Z,57.10
2023-03-03T21:01:24.282Z,63.45
2023-03-03T21:03:52.392Z,57.38
2023-03-03T21:06:21.424Z,61.92
2023-03-03T21:08:56.388Z,59.50
2023-03-03T21:11:26.712Z,57.80
2023-03-03T21:13:54.685Z,57.57
2023-03-03T21:16:23.267Z,62.42
2023-03-03T21:18:58.601Z,62.35
2023-03-03T21:21:33.810Z,61.05
2023-03-03T21:26:49.469Z,64.78
2023-03-03T21:29:22.199Z,58.50
2023-03-03T21:32:00.485Z,61.05
2023-03-03T21:34:30.447Z,58.13
2023-03-03T21:36:59.617Z,63.15
2023-03-03T21:39:28.897Z,63.85
2023-03-03T21:41:58.662Z,59.10
2023-03-03T21:44:32.806Z,61.03
2023-03-03T21:47:00.847Z,55.65
2023-03-03T21:49:28.602Z,63.38
2023-03-03T21:51:57.068Z,56.83
2023-03-03T21:54:25.173Z,59.65
2023-03-03T21:56:53.473Z,57.20
2023-03-03T21:59:21.648Z,58.13
2023-03-03T22:01:49.400Z,59.92
2023-03-03T22:04:17.383Z,55.55
2023-03-03T22:06:49.107Z,61.28
2023-03-03T22:09:17.837Z,59.33
2023-03-03T22:11:45.957Z,60.15
2023-03-03T22:14:16.932Z,57.25
2023-03-03T22:16:48.235Z,64.00
2023-03-03T22:21:53.995Z,59.33
2023-03-03T22:24:25.494Z,57.40
2023-03-03T22:26:57.247Z,59.20
2023-03-03T22:29:25.426Z,56.83
2023-03-03T22:31:53.196Z,61.08
2023-03-03T22:34:21.517Z,60.78
2023-03-03T22:36:53.039Z,61.00
2023-03-03T22:39:26.115Z,57.72
2023-03-03T22:41:57.615Z,57.75
2023-03-03T22:44:26.526Z,55.33
2023-03-03T22:46:54.534Z,58.28
2023-03-03T22:49:22.385Z,63.25
2023-03-03T22:51:50.658Z,60.53
2023-03-03T22:57:03.621Z,61.67
2023-03-03T22:59:33.000Z,59.40
2023-03-03T23:02:00.904Z,60.25
2023-03-03T23:04:29.121Z,58.50
2023-03-03T23:06:57.680Z,60.03
2023-03-03T23:09:27.021Z,57.80
2023-03-03T23:11:54.766Z,59.38
2023-03-03T23:14:22.780Z,56.80
2023-03-03T23:16:50.604Z,60.80
2023-03-03T23:19:18.788Z,59.97
2023-03-03T23:21:46.554Z,63.97
2023-03-03T23:24:14.531Z,62.45
2023-03-03T23:26:42.619Z,62.92
2023-03-03T23:29:11.646Z,61.63
2023-03-03T23:31:39.610Z,59.47
2023-03-03T23:34:07.755Z,58.97
2023-03-03T23:36:35.512Z,62.10
2023-03-03T23:39:03.408Z,62.35
2023-03-03T23:44:25.878Z,57.95
2023-03-03T23:46:53.951Z,66.85
2023-03-03T23:49:22.112Z,58.72
2023-03-03T23:51:50.539Z,57.50
2023-03-03T23:54:20.764Z,56.58
2023-03-03T23:56:48.521Z,57.87
2023-03-03T23:59:16.553Z,58.92
